Portada
METAR-TAF:

METAR-TAF

Aeroports :

Jizan, Aràbia Saudita

latitud: 16-54N, longitud: 042-35E, altitud: 6 m

Observació

L'informe es va fer fa 35 minuts, a les 02:00 UTC
Vent calma
Temperatura 33°C
Humitat 75%
Pressió 1002 hPa
Visibilitat: 7000 m

METAR: OEGN 130200Z 00000KT 7000 NSC 33/28 Q1002 NOSIG

Hora: 05:35 (02:35 UTC)

Pronòstic

L'informe es va fer fa 3 hores i 35 minuts, a les 23:00 UTC
Pronòstic vàlid del 13 a les 00 UTC al 14 a les 06 UTC
Vent 5 kt del Nord
Visibilitat: 7000 m
Evolucionant progressivament
l' 13 a les 06 UTC al 13 a les 08 UTC
Vent 16 kt del Oest
Visibilitat 10 km o més
Escasses núvols a una alçada de 3000 ft
Evolucionant progressivament
l' 13 a les 18 UTC al 13 a les 20 UTC
Vent 5 kt del Nord

TAF: OEGN 122300Z 1300/1406 36005KT 7000 NSC BECMG 1306/1308 27016KT 9999 FEW030 BECMG 1318/1320 36005KT

Observacions i pronòstics meteorològics de més de 4000 aeroports (METAR i TAF).

Les estacions disponibles són els punts grocs i vermells al mapa.

Posi el ratolí al punt desitjat per veure el nom de l'estació.

Feu clic per veure les observacions i els pronòstics meteorològics.

Per canviar el mapa: feu clic els botons verds amb una creu de color negre per apropar; al botó verd amb un guió per allunyar la imatge; o en les fletxes verdes per a mapes adjacents.


METAR-TAF: